sensor_id;sensor_type;location;lat;lon;timestamp;pressure;altitude;pressure_sealevel;temperature;humidity
55675;BME280;41562;44.330;23.802;2023-05-02T00:01:32;100640.91;;;13.48;69.38
55675;BME280;41562;44.330;23.802;2023-05-02T00:04:00;100639.88;;;13.44;69.50
55675;BME280;41562;44.330;23.802;2023-05-02T00:06:29;100641.78;;;13.38;69.97
55675;BME280;41562;44.330;23.802;2023-05-02T00:08:57;100636.66;;;13.42;69.99
55675;BME280;41562;44.330;23.802;2023-05-02T00:11:24;100640.28;;;13.27;70.41
55675;BME280;41562;44.330;23.802;2023-05-02T00:13:51;100636.66;;;13.42;69.93
55675;BME280;41562;44.330;23.802;2023-05-02T00:16:19;100635.84;;;13.41;70.18
55675;BME280;41562;44.330;23.802;2023-05-02T00:18:47;100644.06;;;13.16;70.57
55675;BME280;41562;44.330;23.802;2023-05-02T00:21:14;100646.91;;;13.35;70.24
55675;BME280;41562;44.330;23.802;2023-05-02T00:23:41;100641.00;;;13.38;69.74
55675;BME280;41562;44.330;23.802;2023-05-02T00:26:09;100640.63;;;13.49;70.11
55675;BME280;41562;44.330;23.802;2023-05-02T00:28:36;100644.63;;;13.57;69.47
55675;BME280;41562;44.330;23.802;2023-05-02T00:31:04;100645.47;;;13.47;69.94
55675;BME280;41562;44.330;23.802;2023-05-02T00:33:31;100647.66;;;13.45;69.89
55675;BME280;41562;44.330;23.802;2023-05-02T00:35:58;100660.88;;;13.37;72.72
55675;BME280;41562;44.330;23.802;2023-05-02T00:38:26;100658.00;;;13.23;70.87
55675;BME280;41562;44.330;23.802;2023-05-02T00:40:53;100663.75;;;13.01;71.29
55675;BME280;41562;44.330;23.802;2023-05-02T00:43:20;100661.88;;;13.02;71.31
55675;BME280;41562;44.330;23.802;2023-05-02T00:45:49;100664.94;;;13.29;70.68
55675;BME280;41562;44.330;23.802;2023-05-02T00:48:16;100670.56;;;13.33;70.41
55675;BME280;41562;44.330;23.802;2023-05-02T00:50:45;100669.50;;;13.34;70.67
55675;BME280;41562;44.330;23.802;2023-05-02T00:53:12;100666.00;;;13.33;70.32
55675;BME280;41562;44.330;23.802;2023-05-02T00:55:39;100662.75;;;13.36;73.51
55675;BME280;41562;44.330;23.802;2023-05-02T00:58:13;100657.28;;;13.07;70.98
55675;BME280;41562;44.330;23.802;2023-05-02T01:06:07;100659.66;;;13.19;71.85
55675;BME280;41562;44.330;23.802;2023-05-02T01:08:54;100661.28;;;13.15;71.02
55675;BME280;41562;44.330;23.802;2023-05-02T01:12:01;100658.84;;;13.18;70.93
55675;BME280;41562;44.330;23.802;2023-05-02T01:14:29;100658.34;;;13.06;71.11
55675;BME280;41562;44.330;23.802;2023-05-02T01:17:01;100656.19;;;13.13;71.16
55675;BME280;41562;44.330;23.802;2023-05-02T01:19:35;100654.66;;;12.92;72.11
55675;BME280;41562;44.330;23.802;2023-05-02T01:22:07;100649.78;;;12.99;71.97
55675;BME280;41562;44.330;23.802;2023-05-02T01:24:48;100665.91;;;12.99;74.27
55675;BME280;41562;44.330;23.802;2023-05-02T01:27:29;100653.81;;;13.02;71.98
55675;BME280;41562;44.330;23.802;2023-05-02T01:30:01;100656.03;;;12.84;72.45
55675;BME280;41562;44.330;23.802;2023-05-02T01:32:30;100661.16;;;12.81;72.37
55675;BME280;41562;44.330;23.802;2023-05-02T01:35:00;100660.25;;;13.01;73.70
55675;BME280;41562;44.330;23.802;2023-05-02T01:37:29;100660.59;;;12.89;72.42
55675;BME280;41562;44.330;23.802;2023-05-02T01:39:57;100662.16;;;12.90;72.41
55675;BME280;41562;44.330;23.802;2023-05-02T01:42:29;100660.59;;;12.84;72.73
55675;BME280;41562;44.330;23.802;2023-05-02T01:44:58;100659.50;;;12.85;77.52
55675;BME280;41562;44.330;23.802;2023-05-02T01:47:31;100668.16;;;12.72;73.70
55675;BME280;41562;44.330;23.802;2023-05-02T01:50:02;100664.84;;;12.90;73.34
55675;BME280;41562;44.330;23.802;2023-05-02T01:52:32;100670.31;;;12.70;73.72
55675;BME280;41562;44.330;23.802;2023-05-02T01:55:00;100668.72;;;12.69;75.36
55675;BME280;41562;44.330;23.802;2023-05-02T01:57:30;100673.84;;;12.60;74.67
55675;BME280;41562;44.330;23.802;2023-05-02T01:59:58;100673.03;;;12.55;74.92
55675;BME280;41562;44.330;23.802;2023-05-02T02:02:27;100670.88;;;12.62;74.73
55675;BME280;41562;44.330;23.802;2023-05-02T02:04:56;100673.03;;;12.60;76.09
55675;BME280;41562;44.330;23.802;2023-05-02T02:07:25;100674.38;;;12.62;75.35
55675;BME280;41562;44.330;23.802;2023-05-02T02:09:53;100672.78;;;12.46;76.04
55675;BME280;41562;44.330;23.802;2023-05-02T02:12:26;100676.00;;;12.48;75.84
55675;BME280;41562;44.330;23.802;2023-05-02T02:17:46;100671.16;;;12.55;75.85
55675;BME280;41562;44.330;23.802;2023-05-02T02:20:16;100672.00;;;12.45;76.79
55675;BME280;41562;44.330;23.802;2023-05-02T02:22:44;100675.19;;;12.53;76.55
55675;BME280;41562;44.330;23.802;2023-05-02T02:25:15;100675.22;;;12.47;77.40
55675;BME280;41562;44.330;23.802;2023-05-02T02:27:43;100682.44;;;12.52;76.44
55675;BME280;41562;44.330;23.802;2023-05-02T02:30:10;100685.38;;;12.61;76.47
55675;BME280;41562;44.330;23.802;2023-05-02T02:32:38;100684.28;;;12.62;76.14
55675;BME280;41562;44.330;23.802;2023-05-02T02:35:06;100694.47;;;12.60;78.67
55675;BME280;41562;44.330;23.802;2023-05-02T02:37:40;100682.41;;;12.62;76.88
55675;BME280;41562;44.330;23.802;2023-05-02T02:40:29;100685.88;;;12.73;75.92
55675;BME280;41562;44.330;23.802;2023-05-02T02:51:31;100682.69;;;12.61;76.13
55675;BME280;41562;44.330;23.802;2023-05-02T02:54:19;100689.16;;;12.39;76.79
55675;BME280;41562;44.330;23.802;2023-05-02T02:57:17;100688.91;;;12.51;76.71
55675;BME280;41562;44.330;23.802;2023-05-02T03:00:05;100680.00;;;12.61;76.19
55675;BME280;41562;44.330;23.802;2023-05-02T03:02:34;100677.66;;;12.29;76.91
55675;BME280;41562;44.330;23.802;2023-05-02T03:05:03;100684.41;;;12.26;79.26
55675;BME280;41562;44.330;23.802;2023-05-02T03:07:31;100686.19;;;12.46;76.91
55675;BME280;41562;44.330;23.802;2023-05-02T03:10:02;100691.91;;;12.24;76.94
55675;BME280;41562;44.330;23.802;2023-05-02T03:12:29;100686.00;;;12.17;77.58
55675;BME280;41562;44.330;23.802;2023-05-02T03:17:50;100687.59;;;12.08;77.69
55675;BME280;41562;44.330;23.802;2023-05-02T03:20:17;100692.19;;;11.97;77.91
55675;BME280;41562;44.330;23.802;2023-05-02T03:22:45;100688.97;;;13.88;75.43
55675;BME280;41562;44.330;23.802;2023-05-02T03:25:12;100686.09;;;15.84;67.23
55675;BME280;41562;44.330;23.802;2023-05-02T03:27:40;100694.91;;;16.35;66.47
55675;BME280;41562;44.330;23.802;2023-05-02T03:30:08;100699.84;;;17.02;61.66
55675;BME280;41562;44.330;23.802;2023-05-02T03:32:35;100695.13;;;16.53;61.44
55675;BME280;41562;44.330;23.802;2023-05-02T03:35:03;100700.63;;;16.47;62.83
55675;BME280;41562;44.330;23.802;2023-05-02T03:37:30;100705.00;;;15.65;60.85
55675;BME280;41562;44.330;23.802;2023-05-02T03:39:59;100708.19;;;15.86;63.55
55675;BME280;41562;44.330;23.802;2023-05-02T03:42:28;100708.75;;;15.83;63.62
55675;BME280;41562;44.330;23.802;2023-05-02T03:44:55;100717.78;;;16.24;60.75
55675;BME280;41562;44.330;23.802;2023-05-02T03:47:24;100721.06;;;15.89;62.11
55675;BME280;41562;44.330;23.802;2023-05-02T03:49:52;100719.22;;;16.35;60.13
55675;BME280;41562;44.330;23.802;2023-05-02T03:52:20;100709.59;;;16.29;60.39
55675;BME280;41562;44.330;23.802;2023-05-02T03:54:48;100723.41;;;16.41;60.96
55675;BME280;41562;44.330;23.802;2023-05-02T03:57:17;100710.94;;;15.99;60.82
55675;BME280;41562;44.330;23.802;2023-05-02T03:59:45;100724.84;;;15.50;61.78
55675;BME280;41562;44.330;23.802;2023-05-02T04:02:13;100713.81;;;15.71;60.89
55675;BME280;41562;44.330;23.802;2023-05-02T04:04:41;100724.75;;;15.60;60.21
55675;BME280;41562;44.330;23.802;2023-05-02T04:07:09;100730.59;;;15.25;61.76
55675;BME280;41562;44.330;23.802;2023-05-02T04:09:37;100723.75;;;15.14;60.62
55675;BME280;41562;44.330;23.802;2023-05-02T04:12:05;100732.75;;;14.23;63.63
55675;BME280;41562;44.330;23.802;2023-05-02T04:14:33;100734.28;;;13.22;71.72
55675;BME280;41562;44.330;23.802;2023-05-02T04:17:01;100734.53;;;13.25;70.04
55675;BME280;41562;44.330;23.802;2023-05-02T04:19:29;100738.31;;;13.19;70.59
55675;BME280;41562;44.330;23.802;2023-05-02T04:21:56;100734.59;;;13.05;68.87
55675;BME280;41562;44.330;23.802;2023-05-02T04:24:24;100737.31;;;12.95;73.01
55675;BME280;41562;44.330;23.802;2023-05-02T04:26:51;100736.81;;;12.78;72.80
55675;BME280;41562;44.330;23.802;2023-05-02T04:29:19;100736.25;;;12.96;72.25
55675;BME280;41562;44.330;23.802;2023-05-02T04:31:46;100738.41;;;12.89;69.65
55675;BME280;41562;44.330;23.802;2023-05-02T04:34:14;100745.41;;;12.80;70.10
55675;BME280;41562;44.330;23.802;2023-05-02T04:36:44;100746.94;;;13.06;70.59
55675;BME280;41562;44.330;23.802;2023-05-02T04:39:11;100739.94;;;13.15;72.16
55675;BME280;41562;44.330;23.802;2023-05-02T04:41:39;100743.50;;;12.96;68.58
55675;BME280;41562;44.330;23.802;2023-05-02T04:44:06;100745.41;;;12.80;69.12
55675;BME280;41562;44.330;23.802;2023-05-02T04:46:34;100745.66;;;12.88;70.41
55675;BME280;41562;44.330;23.802;2023-05-02T04:49:01;100745.09;;;13.02;69.08
55675;BME280;41562;44.330;23.802;2023-05-02T04:51:28;100748.84;;;13.01;69.14
55675;BME280;41562;44.330;23.802;2023-05-02T04:53:58;100754.97;;;13.16;68.44
55675;BME280;41562;44.330;23.802;2023-05-02T04:56:32;100758.59;;;13.46;71.53
55675;BME280;41562;44.330;23.802;2023-05-02T04:58:59;100755.94;;;13.41;67.75
55675;BME280;41562;44.330;23.802;2023-05-02T05:01:32;100762.53;;;13.14;68.03
55675;BME280;41562;44.330;23.802;2023-05-02T05:04:03;100765.63;;;13.37;67.37
55675;BME280;41562;44.330;23.802;2023-05-02T05:06:32;100753.69;;;13.58;70.57
55675;BME280;41562;44.330;23.802;2023-05-02T05:09:00;100754.16;;;13.70;65.82
55675;BME280;41562;44.330;23.802;2023-05-02T05:11:32;100755.25;;;13.69;66.47
55675;BME280;41562;44.330;23.802;2023-05-02T05:14:06;100755.25;;;13.69;66.02
55675;BME280;41562;44.330;23.802;2023-05-02T05:16:43;100738.63;;;14.01;66.86
55675;BME280;41562;44.330;23.802;2023-05-02T05:19:12;100750.00;;;13.88;65.20
55675;BME280;41562;44.330;23.802;2023-05-02T05:21:41;100741.03;;;13.97;64.98
55675;BME280;41562;44.330;23.802;2023-05-02T05:24:09;100753.81;;;13.82;64.98
55675;BME280;41562;44.330;23.802;2023-05-02T05:26:36;100751.47;;;14.09;64.37
55675;BME280;41562;44.330;23.802;2023-05-02T05:29:05;100744.66;;;14.17;64.80
55675;BME280;41562;44.330;23.802;2023-05-02T05:31:33;100752.28;;;14.04;64.75
55675;BME280;41562;44.330;23.802;2023-05-02T05:34:01;100756.59;;;14.05;64.98
55675;BME280;41562;44.330;23.802;2023-05-02T05:36:29;100762.34;;;14.28;64.24
55675;BME280;41562;44.330;23.802;2023-05-02T05:39:00;100769.72;;;14.46;63.62
55675;BME280;41562;44.330;23.802;2023-05-02T05:41:30;100773.41;;;14.55;62.48
55675;BME280;41562;44.330;23.802;2023-05-02T05:43:57;100778.22;;;14.58;62.41
55675;BME280;41562;44.330;23.802;2023-05-02T05:46:28;100780.19;;;14.76;61.53
55675;BME280;41562;44.330;23.802;2023-05-02T05:48:56;100777.34;;;14.92;60.59
55675;BME280;41562;44.330;23.802;2023-05-02T05:51:23;100786.09;;;14.78;60.80
55675;BME280;41562;44.330;23.802;2023-05-02T05:53:51;100784.44;;;14.82;60.83
55675;BME280;41562;44.330;23.802;2023-05-02T05:56:18;100784.03;;;14.94;64.56
55675;BME280;41562;44.330;23.802;2023-05-02T05:58:45;100784.28;;;14.98;59.82
55675;BME280;41562;44.330;23.802;2023-05-02T06:01:16;100782.25;;;15.08;59.84
55675;BME280;41562;44.330;23.802;2023-05-02T06:03:46;100772.50;;;15.36;59.41
55675;BME280;41562;44.330;23.802;2023-05-02T06:06:14;100779.22;;;15.57;63.74
55675;BME280;41562;44.330;23.802;2023-05-02T06:08:44;100777.94;;;15.74;59.15
55675;BME280;41562;44.330;23.802;2023-05-02T06:11:15;100772.75;;;16.28;57.88
55675;BME280;41562;44.330;23.802;2023-05-02T06:13:42;100779.03;;;16.56;57.23
55675;BME280;41562;44.330;23.802;2023-05-02T06:16:12;100775.88;;;16.68;55.69
55675;BME280;41562;44.330;23.802;2023-05-02T06:18:43;100772.69;;;16.66;56.55
55675;BME280;41562;44.330;23.802;2023-05-02T06:21:10;100776.81;;;16.58;56.53
55675;BME280;41562;44.330;23.802;2023-05-02T06:23:38;100779.28;;;16.60;56.32
55675;BME280;41562;44.330;23.802;2023-05-02T06:26:08;100777.03;;;16.94;56.24
55675;BME280;41562;44.330;23.802;2023-05-02T06:28:35;100780.75;;;17.48;55.94
55675;BME280;41562;44.330;23.802;2023-05-02T06:31:04;100785.06;;;17.76;54.18
55675;BME280;41562;44.330;23.802;2023-05-02T06:33:36;100783.91;;;17.77;53.38
55675;BME280;41562;44.330;23.802;2023-05-02T06:36:10;100788.41;;;17.32;54.41
55675;BME280;41562;44.330;23.802;2023-05-02T06:38:37;100783.19;;;17.85;54.87
55675;BME280;41562;44.330;23.802;2023-05-02T06:41:05;100777.91;;;18.02;53.12
55675;BME280;41562;44.330;23.802;2023-05-02T06:43:32;100775.34;;;17.97;52.98
55675;BME280;41562;44.330;23.802;2023-05-02T06:46:00;100774.78;;;18.31;52.71
55675;BME280;41562;44.330;23.802;2023-05-02T06:48:30;100777.72;;;18.43;52.95
55675;BME280;41562;44.330;23.802;2023-05-02T06:50:58;100771.00;;;18.63;52.69
55675;BME280;41562;44.330;23.802;2023-05-02T06:53:25;100772.66;;;18.51;52.48
55675;BME280;41562;44.330;23.802;2023-05-02T06:55:53;100783.56;;;18.59;52.19
55675;BME280;41562;44.330;23.802;2023-05-02T06:58:23;100767.06;;;18.69;53.29
55675;BME280;41562;44.330;23.802;2023-05-02T07:00:53;100772.75;;;18.37;52.96
55675;BME280;41562;44.330;23.802;2023-05-02T07:03:20;100773.88;;;18.58;53.06
55675;BME280;41562;44.330;23.802;2023-05-02T07:05:48;100775.44;;;18.59;52.82
55675;BME280;41562;44.330;23.802;2023-05-02T07:08:15;100788.13;;;18.81;53.82
55675;BME280;41562;44.330;23.802;2023-05-02T07:10:52;100787.28;;;19.11;51.87
55675;BME280;41562;44.330;23.802;2023-05-02T07:13:19;100780.47;;;19.22;51.65
55675;BME280;41562;44.330;23.802;2023-05-02T07:15:47;100787.34;;;19.20;50.37
55675;BME280;41562;44.330;23.802;2023-05-02T07:18:14;100784.13;;;19.18;52.92
55675;BME280;41562;44.330;23.802;2023-05-02T07:20:42;100792.00;;;19.28;51.59
55675;BME280;41562;44.330;23.802;2023-05-02T07:23:09;100797.53;;;19.14;52.25
55675;BME280;41562;44.330;23.802;2023-05-02T07:25:36;100791.75;;;19.16;52.18
55675;BME280;41562;44.330;23.802;2023-05-02T07:28:07;100783.75;;;19.50;53.66
55675;BME280;41562;44.330;23.802;2023-05-02T07:30:38;100783.06;;;19.36;51.58
55675;BME280;41562;44.330;23.802;2023-05-02T07:33:08;100789.34;;;19.62;50.54
55675;BME280;41562;44.330;23.802;2023-05-02T07:35:36;100791.13;;;19.93;50.62
55675;BME280;41562;44.330;23.802;2023-05-02T07:38:03;100795.44;;;19.85;51.33
55675;BME280;41562;44.330;23.802;2023-05-02T07:40:31;100799.25;;;20.19;50.46
55675;BME280;41562;44.330;23.802;2023-05-02T07:43:02;100794.47;;;19.81;50.22
55675;BME280;41562;44.330;23.802;2023-05-02T07:45:40;100795.13;;;20.04;49.72
55675;BME280;41562;44.330;23.802;2023-05-02T07:48:10;100788.56;;;20.22;49.16
55675;BME280;41562;44.330;23.802;2023-05-02T07:50:38;100787.88;;;20.42;49.27
55675;BME280;41562;44.330;23.802;2023-05-02T07:53:08;100789.78;;;20.59;47.87
55675;BME280;41562;44.330;23.802;2023-05-02T07:55:36;100791.25;;;20.39;48.88
55675;BME280;41562;44.330;23.802;2023-05-02T07:58:06;100787.38;;;20.66;48.14
55675;BME280;41562;44.330;23.802;2023-05-02T08:00:33;100795.72;;;20.44;46.73
55675;BME280;41562;44.330;23.802;2023-05-02T08:03:02;100800.22;;;20.40;45.79
55675;BME280;41562;44.330;23.802;2023-05-02T08:05:32;100796.28;;;20.75;45.36
55675;BME280;41562;44.330;23.802;2023-05-02T08:08:03;100790.41;;;20.65;45.96
55675;BME280;41562;44.330;23.802;2023-05-02T08:10:33;100799.56;;;20.98;44.29
55675;BME280;41562;44.330;23.802;2023-05-02T08:13:04;100794.34;;;20.84;44.96
55675;BME280;41562;44.330;23.802;2023-05-02T08:15:34;100799.19;;;21.08;44.04
55675;BME280;41562;44.330;23.802;2023-05-02T08:18:01;100797.06;;;21.22;43.44
55675;BME280;41562;44.330;23.802;2023-05-02T08:20:30;100793.09;;;21.11;44.64
55675;BME280;41562;44.330;23.802;2023-05-02T08:23:00;100797.38;;;21.21;44.78
55675;BME280;41562;44.330;23.802;2023-05-02T08:25:31;100782.84;;;21.46;42.50
55675;BME280;41562;44.330;23.802;2023-05-02T08:27:58;100790.22;;;21.16;40.00
55675;BME280;41562;44.330;23.802;2023-05-02T08:30:26;100785.75;;;21.41;39.02
55675;BME280;41562;44.330;23.802;2023-05-02T08:32:56;100798.88;;;21.01;38.80
55675;BME280;41562;44.330;23.802;2023-05-02T08:35:27;100788.72;;;21.27;39.31
55675;BME280;41562;44.330;23.802;2023-05-02T08:38:01;100791.47;;;21.69;38.53
55675;BME280;41562;44.330;23.802;2023-05-02T08:40:34;100796.78;;;21.65;38.83
55675;BME280;41562;44.330;23.802;2023-05-02T08:43:15;100797.59;;;21.66;39.07
55675;BME280;41562;44.330;23.802;2023-05-02T08:45:46;100797.28;;;21.38;36.98
55675;BME280;41562;44.330;23.802;2023-05-02T08:48:19;100791.44;;;21.27;37.21
55675;BME280;41562;44.330;23.802;2023-05-02T08:50:50;100799.72;;;21.81;38.11
55675;BME280;41562;44.330;23.802;2023-05-02T08:53:22;100795.84;;;21.41;33.57
55675;BME280;41562;44.330;23.802;2023-05-02T08:55:50;100785.56;;;21.67;34.12
55675;BME280;41562;44.330;23.802;2023-05-02T08:58:20;100793.06;;;21.49;33.07
55675;BME280;41562;44.330;23.802;2023-05-02T09:00:49;100779.63;;;21.23;32.79
55675;BME280;41562;44.330;23.802;2023-05-02T09:03:32;100781.31;;;21.57;32.61
55675;BME280;41562;44.330;23.802;2023-05-02T09:06:18;100761.69;;;22.38;36.59
55675;BME280;41562;44.330;23.802;2023-05-02T09:08:48;100782.31;;;22.60;33.37
55675;BME280;41562;44.330;23.802;2023-05-02T09:11:21;100785.31;;;21.81;31.78
55675;BME280;41562;44.330;23.802;2023-05-02T09:13:49;100779.53;;;22.03;34.29
55675;BME280;41562;44.330;23.802;2023-05-02T09:16:19;100778.06;;;21.64;32.92
55675;BME280;41562;44.330;23.802;2023-05-02T09:18:52;100768.38;;;21.54;33.69
55675;BME280;41562;44.330;23.802;2023-05-02T09:21:24;100762.06;;;21.62;34.47
55675;BME280;41562;44.330;23.802;2023-05-02T09:23:56;100759.59;;;21.90;35.53
55675;BME280;41562;44.330;23.802;2023-05-02T09:28:54;100754.88;;;21.79;33.72
55675;BME280;41562;44.330;23.802;2023-05-02T09:31:29;100752.69;;;21.93;32.91
55675;BME280;41562;44.330;23.802;2023-05-02T09:34:18;100751.56;;;21.73;30.82
55675;BME280;41562;44.330;23.802;2023-05-02T09:36:48;100756.06;;;21.69;30.15
55675;BME280;41562;44.330;23.802;2023-05-02T09:39:21;100761.59;;;22.35;32.37
55675;BME280;41562;44.330;23.802;2023-05-02T09:41:52;100748.31;;;21.80;32.25
55675;BME280;41562;44.330;23.802;2023-05-02T09:44:23;100756.31;;;22.18;28.97
55675;BME280;41562;44.330;23.802;2023-05-02T09:46:55;100751.09;;;21.71;29.62
55675;BME280;41562;44.330;23.802;2023-05-02T09:49:47;100744.00;;;21.58;30.03
55675;BME280;41562;44.330;23.802;2023-05-02T09:52:15;100744.22;;;21.74;30.01
55675;BME280;41562;44.330;23.802;2023-05-02T09:54:43;100749.25;;;21.63;29.90
55675;BME280;41562;44.330;23.802;2023-05-02T09:57:11;100746.97;;;21.44;28.52
55675;BME280;41562;44.330;23.802;2023-05-02T09:59:54;100738.41;;;21.75;29.35
55675;BME280;41562;44.330;23.802;2023-05-02T10:02:25;100744.84;;;21.91;29.75
55675;BME280;41562;44.330;23.802;2023-05-02T10:05:00;100739.31;;;22.33;30.14
55675;BME280;41562;44.330;23.802;2023-05-02T10:07:32;100733.94;;;22.12;29.21
55675;BME280;41562;44.330;23.802;2023-05-02T10:10:00;100729.06;;;21.85;30.28
55675;BME280;41562;44.330;23.802;2023-05-02T10:12:32;100738.25;;;22.13;29.77
55675;BME280;41562;44.330;23.802;2023-05-02T10:15:03;100732.34;;;21.90;30.48
55675;BME280;41562;44.330;23.802;2023-05-02T10:17:38;100738.75;;;21.74;31.63
55675;BME280;41562;44.330;23.802;2023-05-02T10:20:06;100737.53;;;21.83;31.89
55675;BME280;41562;44.330;23.802;2023-05-02T10:22:35;100717.09;;;21.98;32.18
55675;BME280;41562;44.330;23.802;2023-05-02T10:25:03;100733.97;;;21.91;32.64
55675;BME280;41562;44.330;23.802;2023-05-02T10:27:34;100716.34;;;21.89;32.67
55675;BME280;41562;44.330;23.802;2023-05-02T10:30:05;100709.00;;;22.22;33.22
55675;BME280;41562;44.330;23.802;2023-05-02T10:32:35;100721.47;;;21.90;32.35
55675;BME280;41562;44.330;23.802;2023-05-02T10:35:05;100716.31;;;21.97;33.43
55675;BME280;41562;44.330;23.802;2023-05-02T10:37:35;100712.63;;;21.60;32.90
55675;BME280;41562;44.330;23.802;2023-05-02T10:40:03;100716.41;;;22.01;33.14
55675;BME280;41562;44.330;23.802;2023-05-02T10:42:35;100722.06;;;21.75;33.10
55675;BME280;41562;44.330;23.802;2023-05-02T10:45:04;100706.53;;;21.76;34.02
55675;BME280;41562;44.330;23.802;2023-05-02T10:47:31;100695.03;;;22.12;34.23
55675;BME280;41562;44.330;23.802;2023-05-02T10:50:01;100709.03;;;21.48;34.43
55675;BME280;41562;44.330;23.802;2023-05-02T10:52:34;100708.06;;;21.85;34.82
55675;BME280;41562;44.330;23.802;2023-05-02T10:55:28;100703.09;;;21.87;34.71
55675;BME280;41562;44.330;23.802;2023-05-02T11:00:24;100698.78;;;21.65;35.02
55675;BME280;41562;44.330;23.802;2023-05-02T11:02:53;100709.28;;;22.09;35.21
55675;BME280;41562;44.330;23.802;2023-05-02T11:05:22;100710.84;;;21.77;35.04
55675;BME280;41562;44.330;23.802;2023-05-02T11:10:46;100709.53;;;22.16;35.11
55675;BME280;41562;44.330;23.802;2023-05-02T11:13:13;100716.44;;;22.13;34.19
55675;BME280;41562;44.330;23.802;2023-05-02T11:18:12;100706.84;;;22.28;34.29
55675;BME280;41562;44.330;23.802;2023-05-02T11:20:43;100710.91;;;22.22;33.35
55675;BME280;41562;44.330;23.802;2023-05-02T11:25:43;100705.81;;;21.87;33.63
55675;BME280;41562;44.330;23.802;2023-05-02T11:31:00;100693.91;;;22.25;33.27
55675;BME280;41562;44.330;23.802;2023-05-02T11:33:28;100695.44;;;22.01;32.25
55675;BME280;41562;44.330;23.802;2023-05-02T11:35:56;100699.91;;;22.18;32.31
55675;BME280;41562;44.330;23.802;2023-05-02T11:38:25;100693.56;;;21.93;33.09
55675;BME280;41562;44.330;23.802;2023-05-02T11:40:58;100706.13;;;22.07;33.13
55675;BME280;41562;44.330;23.802;2023-05-02T11:43:27;100684.53;;;22.01;33.89
55675;BME280;41562;44.330;23.802;2023-05-02T11:45:59;100682.84;;;22.09;34.46
55675;BME280;41562;44.330;23.802;2023-05-02T11:48:27;100693.06;;;21.79;33.60
55675;BME280;41562;44.330;23.802;2023-05-02T11:50:57;100692.38;;;21.82;34.64
55675;BME280;41562;44.330;23.802;2023-05-02T11:53:26;100682.81;;;21.97;34.85
55675;BME280;41562;44.330;23.802;2023-05-02T11:56:01;100682.69;;;21.93;34.94
55675;BME280;41562;44.330;23.802;2023-05-02T11:58:30;100682.81;;;21.97;35.05
55675;BME280;41562;44.330;23.802;2023-05-02T12:01:10;100673.16;;;21.66;34.62
55675;BME280;41562;44.330;23.802;2023-05-02T12:03:38;100676.44;;;21.93;35.13
55675;BME280;41562;44.330;23.802;2023-05-02T12:06:14;100672.72;;;21.97;34.15
55675;BME280;41562;44.330;23.802;2023-05-02T12:08:43;100676.03;;;21.82;34.00
55675;BME280;41562;44.330;23.802;2023-05-02T12:11:14;100683.81;;;21.92;34.83
55675;BME280;41562;44.330;23.802;2023-05-02T12:13:46;100670.19;;;21.92;35.63
55675;BME280;41562;44.330;23.802;2023-05-02T12:16:15;100671.97;;;22.09;36.05
55675;BME280;41562;44.330;23.802;2023-05-02T12:18:43;100659.31;;;21.59;36.38
55675;BME280;41562;44.330;23.802;2023-05-02T12:21:11;100663.44;;;21.98;36.11
55675;BME280;41562;44.330;23.802;2023-05-02T12:23:39;100641.19;;;22.09;36.10
55675;BME280;41562;44.330;23.802;2023-05-02T12:26:21;100646.09;;;22.15;36.20
55675;BME280;41562;44.330;23.802;2023-05-02T12:28:52;100660.03;;;22.14;36.12
55675;BME280;41562;44.330;23.802;2023-05-02T12:31:21;100641.09;;;22.05;36.22
55675;BME280;41562;44.330;23.802;2023-05-02T12:33:49;100641.66;;;22.11;35.49
55675;BME280;41562;44.330;23.802;2023-05-02T12:36:17;100641.00;;;22.26;35.25
55675;BME280;41562;44.330;23.802;2023-05-02T12:38:52;100630.31;;;22.33;35.10
55675;BME280;41562;44.330;23.802;2023-05-02T12:41:37;100629.19;;;22.10;35.62
55675;BME280;41562;44.330;23.802;2023-05-02T12:44:05;100621.00;;;22.22;35.91
55675;BME280;41562;44.330;23.802;2023-05-02T12:46:33;100615.56;;;22.34;35.92
55675;BME280;41562;44.330;23.802;2023-05-02T12:49:08;100615.00;;;22.40;36.62
55675;BME280;41562;44.330;23.802;2023-05-02T12:51:37;100623.06;;;22.37;35.69
55675;BME280;41562;44.330;23.802;2023-05-02T12:54:05;100612.41;;;22.44;35.63
55675;BME280;41562;44.330;23.802;2023-05-02T12:56:39;100603.19;;;22.61;35.83
55675;BME280;41562;44.330;23.802;2023-05-02T12:59:08;100603.09;;;22.57;35.68
55675;BME280;41562;44.330;23.802;2023-05-02T13:01:37;100602.38;;;22.60;35.39
55675;BME280;41562;44.330;23.802;2023-05-02T13:04:05;100601.72;;;22.63;34.93
55675;BME280;41562;44.330;23.802;2023-05-02T13:06:33;100598.06;;;22.59;34.71
55675;BME280;41562;44.330;23.802;2023-05-02T13:09:08;100590.81;;;22.51;34.53
55675;BME280;41562;44.330;23.802;2023-05-02T13:11:36;100599.44;;;22.65;34.25
55675;BME280;41562;44.330;23.802;2023-05-02T13:14:03;100596.94;;;22.60;37.17
55675;BME280;41562;44.330;23.802;2023-05-02T13:16:31;100604.09;;;22.40;32.78
55675;BME280;41562;44.330;23.802;2023-05-02T13:18:59;100595.81;;;22.37;33.26
55675;BME280;41562;44.330;23.802;2023-05-02T13:21:26;100605.44;;;22.59;33.02
55675;BME280;41562;44.330;23.802;2023-05-02T13:23:53;100602.88;;;22.50;33.25
55675;BME280;41562;44.330;23.802;2023-05-02T13:26:21;100603.06;;;22.33;32.99
55675;BME280;41562;44.330;23.802;2023-05-02T13:28:49;100589.34;;;22.41;32.81
55675;BME280;41562;44.330;23.802;2023-05-02T13:31:17;100592.75;;;22.63;33.37